sensor_id;sensor_type;location;lat;lon;timestamp;temperature;humidity
68609;SHT31;55581;46.718;7.690;2023-08-07T00:00:36;11.95;87.71
68609;SHT31;55581;46.718;7.690;2023-08-07T00:03:01;11.95;88.06
68609;SHT31;55581;46.718;7.690;2023-08-07T00:05:30;12.01;84.96
68609;SHT31;55581;46.718;7.690;2023-08-07T00:07:55;12.04;83.93
68609;SHT31;55581;46.718;7.690;2023-08-07T00:10:21;12.06;83.51
68609;SHT31;55581;46.718;7.690;2023-08-07T00:12:46;12.08;84.14
68609;SHT31;55581;46.718;7.690;2023-08-07T00:15:11;12.08;86.70
68609;SHT31;55581;46.718;7.690;2023-08-07T00:17:37;12.06;87.62
68609;SHT31;55581;46.718;7.690;2023-08-07T00:20:03;12.10;87.25
68609;SHT31;55581;46.718;7.690;2023-08-07T00:22:29;12.02;86.38
68609;SHT31;55581;46.718;7.690;2023-08-07T00:24:54;11.94;87.51
68609;SHT31;55581;46.718;7.690;2023-08-07T00:27:20;11.77;87.84
68609;SHT31;55581;46.718;7.690;2023-08-07T00:29:47;11.74;87.12
68609;SHT31;55581;46.718;7.690;2023-08-07T00:32:15;11.59;85.94
68609;SHT31;55581;46.718;7.690;2023-08-07T00:34:44;11.56;86.77
68609;SHT31;55581;46.718;7.690;2023-08-07T00:37:09;11.55;87.31
68609;SHT31;55581;46.718;7.690;2023-08-07T00:39:34;11.53;88.89
68609;SHT31;55581;46.718;7.690;2023-08-07T00:42:00;11.42;88.96
68609;SHT31;55581;46.718;7.690;2023-08-07T00:44:25;11.47;89.89
68609;SHT31;55581;46.718;7.690;2023-08-07T00:46:51;11.44;90.29
68609;SHT31;55581;46.718;7.690;2023-08-07T00:49:17;11.49;90.21
68609;SHT31;55581;46.718;7.690;2023-08-07T00:51:44;11.47;90.19
68609;SHT31;55581;46.718;7.690;2023-08-07T00:54:14;11.49;89.27
68609;SHT31;55581;46.718;7.690;2023-08-07T00:56:40;11.42;89.65
68609;SHT31;55581;46.718;7.690;2023-08-07T00:59:06;11.36;89.71
68609;SHT31;55581;46.718;7.690;2023-08-07T01:01:32;11.39;88.73
68609;SHT31;55581;46.718;7.690;2023-08-07T01:04:01;11.44;87.71
68609;SHT31;55581;46.718;7.690;2023-08-07T01:06:26;11.46;88.34
68609;SHT31;55581;46.718;7.690;2023-08-07T01:08:52;11.47;87.67
68609;SHT31;55581;46.718;7.690;2023-08-07T01:16:19;11.35;87.27
68609;SHT31;55581;46.718;7.690;2023-08-07T01:18:46;11.36;88.33
68609;SHT31;55581;46.718;7.690;2023-08-07T01:21:19;11.23;88.73
68609;SHT31;55581;46.718;7.690;2023-08-07T01:23:48;11.15;88.73
68609;SHT31;55581;46.718;7.690;2023-08-07T01:26:15;11.25;88.71
68609;SHT31;55581;46.718;7.690;2023-08-07T01:29:12;11.21;86.81
68609;SHT31;55581;46.718;7.690;2023-08-07T01:31:33;11.18;81.01
68609;SHT31;55581;46.718;7.690;2023-08-07T01:34:05;11.21;86.81
68609;SHT31;55581;46.718;7.690;2023-08-07T01:36:32;11.22;88.10
68609;SHT31;55581;46.718;7.690;2023-08-07T01:39:02;11.22;86.15
68609;SHT31;55581;46.718;7.690;2023-08-07T01:41:29;11.14;86.49
68609;SHT31;55581;46.718;7.690;2023-08-07T01:43:54;11.04;87.83
68609;SHT31;55581;46.718;7.690;2023-08-07T01:46:20;10.95;88.62
68609;SHT31;55581;46.718;7.690;2023-08-07T01:48:45;10.83;88.79
68609;SHT31;55581;46.718;7.690;2023-08-07T01:51:13;10.81;90.49
68609;SHT31;55581;46.718;7.690;2023-08-07T01:53:38;10.87;89.04
68609;SHT31;55581;46.718;7.690;2023-08-07T01:56:04;10.92;89.50
68609;SHT31;55581;46.718;7.690;2023-08-07T01:58:29;10.91;86.83
68609;SHT31;55581;46.718;7.690;2023-08-07T02:00:55;10.92;86.15
68609;SHT31;55581;46.718;7.690;2023-08-07T02:03:22;10.95;88.50
68609;SHT31;55581;46.718;7.690;2023-08-07T02:05:48;10.94;86.44
68609;SHT31;55581;46.718;7.690;2023-08-07T02:08:18;10.94;87.69
68609;SHT31;55581;46.718;7.690;2023-08-07T02:10:43;11.00;83.99
68609;SHT31;55581;46.718;7.690;2023-08-07T02:13:09;11.11;87.23
68609;SHT31;55581;46.718;7.690;2023-08-07T02:15:34;10.94;87.70
68609;SHT31;55581;46.718;7.690;2023-08-07T02:17:59;10.91;89.88
68609;SHT31;55581;46.718;7.690;2023-08-07T02:20:25;10.91;88.72
68609;SHT31;55581;46.718;7.690;2023-08-07T02:22:50;10.84;88.95
68609;SHT31;55581;46.718;7.690;2023-08-07T02:25:16;10.88;88.79
68609;SHT31;55581;46.718;7.690;2023-08-07T02:27:41;10.81;88.59
68609;SHT31;55581;46.718;7.690;2023-08-07T02:30:07;10.88;88.38
68609;SHT31;55581;46.718;7.690;2023-08-07T02:32:32;10.85;87.37
68609;SHT31;55581;46.718;7.690;2023-08-07T02:34:58;10.90;87.67
68609;SHT31;55581;46.718;7.690;2023-08-07T02:37:25;10.92;86.27
68609;SHT31;55581;46.718;7.690;2023-08-07T02:39:51;10.97;79.17
68609;SHT31;55581;46.718;7.690;2023-08-07T02:42:16;10.85;86.69
68609;SHT31;55581;46.718;7.690;2023-08-07T02:44:41;10.87;86.86
68609;SHT31;55581;46.718;7.690;2023-08-07T02:47:07;10.88;88.58
68609;SHT31;55581;46.718;7.690;2023-08-07T02:49:32;10.83;89.29
68609;SHT31;55581;46.718;7.690;2023-08-07T02:51:58;10.74;88.94
68609;SHT31;55581;46.718;7.690;2023-08-07T02:54:23;10.73;88.78
68609;SHT31;55581;46.718;7.690;2023-08-07T02:56:51;10.71;89.71
68609;SHT31;55581;46.718;7.690;2023-08-07T02:59:16;10.83;89.39
68609;SHT31;55581;46.718;7.690;2023-08-07T03:01:43;10.83;89.74
68609;SHT31;55581;46.718;7.690;2023-08-07T03:04:09;10.83;89.48
68609;SHT31;55581;46.718;7.690;2023-08-07T03:06:34;10.77;90.42
68609;SHT31;55581;46.718;7.690;2023-08-07T03:09:00;10.71;90.41
68609;SHT31;55581;46.718;7.690;2023-08-07T03:11:25;10.74;91.67
68609;SHT31;55581;46.718;7.690;2023-08-07T03:13:51;10.77;90.55
68609;SHT31;55581;46.718;7.690;2023-08-07T03:16:16;10.67;91.33
68609;SHT31;55581;46.718;7.690;2023-08-07T03:18:42;10.75;91.23
68609;SHT31;55581;46.718;7.690;2023-08-07T03:21:07;10.74;90.71
68609;SHT31;55581;46.718;7.690;2023-08-07T03:23:33;10.85;89.02
68609;SHT31;55581;46.718;7.690;2023-08-07T03:26:04;10.80;89.97
68609;SHT31;55581;46.718;7.690;2023-08-07T03:28:30;10.90;89.54
68609;SHT31;55581;46.718;7.690;2023-08-07T03:30:56;10.85;89.33
68609;SHT31;55581;46.718;7.690;2023-08-07T03:33:21;10.83;89.40
68609;SHT31;55581;46.718;7.690;2023-08-07T03:35:47;10.78;89.41
68609;SHT31;55581;46.718;7.690;2023-08-07T03:38:12;10.83;90.14
68609;SHT31;55581;46.718;7.690;2023-08-07T03:40:37;10.81;90.88
68609;SHT31;55581;46.718;7.690;2023-08-07T03:43:03;10.80;91.07
68609;SHT31;55581;46.718;7.690;2023-08-07T03:45:31;10.73;91.13
68609;SHT31;55581;46.718;7.690;2023-08-07T03:47:58;10.73;91.13
68609;SHT31;55581;46.718;7.690;2023-08-07T03:50:26;10.85;89.96
68609;SHT31;55581;46.718;7.690;2023-08-07T03:52:52;10.80;89.71
68609;SHT31;55581;46.718;7.690;2023-08-07T03:55:19;10.84;87.88
68609;SHT31;55581;46.718;7.690;2023-08-07T03:57:45;10.92;86.02
68609;SHT31;55581;46.718;7.690;2023-08-07T04:00:10;10.92;87.61
68609;SHT31;55581;46.718;7.690;2023-08-07T04:02:39;10.91;87.71
68609;SHT31;55581;46.718;7.690;2023-08-07T04:05:05;10.92;87.47
68609;SHT31;55581;46.718;7.690;2023-08-07T04:07:30;10.92;88.54
68609;SHT31;55581;46.718;7.690;2023-08-07T04:09:57;10.94;86.72
68609;SHT31;55581;46.718;7.690;2023-08-07T04:12:22;10.95;86.65
68609;SHT31;55581;46.718;7.690;2023-08-07T04:14:48;10.78;88.42
68609;SHT31;55581;46.718;7.690;2023-08-07T04:17:15;10.64;90.26
68609;SHT31;55581;46.718;7.690;2023-08-07T04:19:41;10.66;90.42
68609;SHT31;55581;46.718;7.690;2023-08-07T04:22:06;10.75;90.19
68609;SHT31;55581;46.718;7.690;2023-08-07T04:24:32;10.67;89.25
68609;SHT31;55581;46.718;7.690;2023-08-07T04:27:00;10.59;89.77
68609;SHT31;55581;46.718;7.690;2023-08-07T04:29:25;10.61;90.03
68609;SHT31;55581;46.718;7.690;2023-08-07T04:31:53;10.55;91.74
68609;SHT31;55581;46.718;7.690;2023-08-07T04:34:18;10.52;90.57
68609;SHT31;55581;46.718;7.690;2023-08-07T04:36:44;10.52;90.63
68609;SHT31;55581;46.718;7.690;2023-08-07T04:39:11;10.46;90.89
68609;SHT31;55581;46.718;7.690;2023-08-07T04:41:38;10.49;91.00
68609;SHT31;55581;46.718;7.690;2023-08-07T04:44:04;10.40;91.38
68609;SHT31;55581;46.718;7.690;2023-08-07T04:46:29;10.35;91.34
68609;SHT31;55581;46.718;7.690;2023-08-07T04:48:55;10.42;91.24
68609;SHT31;55581;46.718;7.690;2023-08-07T04:51:23;10.53;89.92
68609;SHT31;55581;46.718;7.690;2023-08-07T04:53:48;10.64;89.75
68609;SHT31;55581;46.718;7.690;2023-08-07T04:56:16;10.74;86.55
68609;SHT31;55581;46.718;7.690;2023-08-07T04:58:42;10.84;87.75
68609;SHT31;55581;46.718;7.690;2023-08-07T05:01:07;10.92;88.69
68609;SHT31;55581;46.718;7.690;2023-08-07T05:03:36;10.91;88.08
68609;SHT31;55581;46.718;7.690;2023-08-07T05:06:02;10.98;88.71
68609;SHT31;55581;46.718;7.690;2023-08-07T05:08:27;11.02;87.47
68609;SHT31;55581;46.718;7.690;2023-08-07T05:10:55;11.08;85.33
68609;SHT31;55581;46.718;7.690;2023-08-07T05:13:21;11.16;85.66
68609;SHT31;55581;46.718;7.690;2023-08-07T05:15:47;11.21;85.78
68609;SHT31;55581;46.718;7.690;2023-08-07T05:18:15;11.18;86.10
68609;SHT31;55581;46.718;7.690;2023-08-07T05:20:41;11.19;86.25
68609;SHT31;55581;46.718;7.690;2023-08-07T05:23:06;11.18;87.66
68609;SHT31;55581;46.718;7.690;2023-08-07T05:25:34;11.05;87.78
68609;SHT31;55581;46.718;7.690;2023-08-07T05:27:59;11.01;89.54
68609;SHT31;55581;46.718;7.690;2023-08-07T05:30:27;11.07;89.87
68609;SHT31;55581;46.718;7.690;2023-08-07T05:32:55;11.08;87.22
68609;SHT31;55581;46.718;7.690;2023-08-07T05:35:20;11.08;88.72
68609;SHT31;55581;46.718;7.690;2023-08-07T05:37:46;11.07;89.52
68609;SHT31;55581;46.718;7.690;2023-08-07T05:40:14;11.10;89.09
68609;SHT31;55581;46.718;7.690;2023-08-07T05:42:39;11.10;89.62
68609;SHT31;55581;46.718;7.690;2023-08-07T05:45:06;10.98;90.26
68609;SHT31;55581;46.718;7.690;2023-08-07T05:47:32;10.83;90.63
68609;SHT31;55581;46.718;7.690;2023-08-07T05:49:57;10.73;90.92
68609;SHT31;55581;46.718;7.690;2023-08-07T05:52:25;10.77;92.17
68609;SHT31;55581;46.718;7.690;2023-08-07T05:54:51;10.85;92.50
68609;SHT31;55581;46.718;7.690;2023-08-07T05:57:17;10.88;90.55
68609;SHT31;55581;46.718;7.690;2023-08-07T05:59:45;11.11;80.73
68609;SHT31;55581;46.718;7.690;2023-08-07T06:02:13;11.21;82.57
68609;SHT31;55581;46.718;7.690;2023-08-07T06:04:40;11.18;88.23
68609;SHT31;55581;46.718;7.690;2023-08-07T06:07:06;11.15;88.05
68609;SHT31;55581;46.718;7.690;2023-08-07T06:09:32;11.18;90.82
68609;SHT31;55581;46.718;7.690;2023-08-07T06:11:59;11.22;90.59
68609;SHT31;55581;46.718;7.690;2023-08-07T06:14:25;11.28;90.83
68609;SHT31;55581;46.718;7.690;2023-08-07T06:16:53;11.22;90.33
68609;SHT31;55581;46.718;7.690;2023-08-07T06:19:21;11.29;88.72
68609;SHT31;55581;46.718;7.690;2023-08-07T06:21:47;11.08;87.61
68609;SHT31;55581;46.718;7.690;2023-08-07T06:24:15;11.08;90.44
68609;SHT31;55581;46.718;7.690;2023-08-07T06:26:40;10.90;90.21
68609;SHT31;55581;46.718;7.690;2023-08-07T06:29:06;10.94;89.87
68609;SHT31;55581;46.718;7.690;2023-08-07T06:31:31;10.75;89.82
68609;SHT31;55581;46.718;7.690;2023-08-07T06:33:56;10.78;90.35
68609;SHT31;55581;46.718;7.690;2023-08-07T06:36:24;10.78;91.16
68609;SHT31;55581;46.718;7.690;2023-08-07T06:38:52;10.87;91.32
68609;SHT31;55581;46.718;7.690;2023-08-07T06:41:18;10.95;90.74
68609;SHT31;55581;46.718;7.690;2023-08-07T06:43:43;11.08;89.87
68609;SHT31;55581;46.718;7.690;2023-08-07T06:46:09;11.16;91.08
68609;SHT31;55581;46.718;7.690;2023-08-07T06:48:38;11.23;90.46
68609;SHT31;55581;46.718;7.690;2023-08-07T06:51:03;11.32;90.35
68609;SHT31;55581;46.718;7.690;2023-08-07T06:53:29;11.46;87.14
68609;SHT31;55581;46.718;7.690;2023-08-07T06:55:54;11.49;86.05
68609;SHT31;55581;46.718;7.690;2023-08-07T06:58:22;11.52;88.12
68609;SHT31;55581;46.718;7.690;2023-08-07T07:00:47;11.50;88.54
68609;SHT31;55581;46.718;7.690;2023-08-07T07:03:14;11.63;90.86
68609;SHT31;55581;46.718;7.690;2023-08-07T07:05:39;11.70;89.65
68609;SHT31;55581;46.718;7.690;2023-08-07T07:08:08;11.76;88.97
68609;SHT31;55581;46.718;7.690;2023-08-07T07:10:33;11.87;88.02
68609;SHT31;55581;46.718;7.690;2023-08-07T07:12:58;11.85;87.98
68609;SHT31;55581;46.718;7.690;2023-08-07T07:15:24;12.02;88.69
68609;SHT31;55581;46.718;7.690;2023-08-07T07:17:50;12.21;85.97
68609;SHT31;55581;46.718;7.690;2023-08-07T07:20:15;12.26;85.79
68609;SHT31;55581;46.718;7.690;2023-08-07T07:22:40;12.33;85.61
68609;SHT31;55581;46.718;7.690;2023-08-07T07:25:06;12.33;85.30
68609;SHT31;55581;46.718;7.690;2023-08-07T07:27:32;12.40;83.92
68609;SHT31;55581;46.718;7.690;2023-08-07T07:30:01;12.43;84.46
68609;SHT31;55581;46.718;7.690;2023-08-07T07:32:27;12.45;84.77
68609;SHT31;55581;46.718;7.690;2023-08-07T07:34:52;12.55;83.22
68609;SHT31;55581;46.718;7.690;2023-08-07T07:37:20;12.56;83.40
68609;SHT31;55581;46.718;7.690;2023-08-07T07:39:46;12.55;83.78
68609;SHT31;55581;46.718;7.690;2023-08-07T07:42:11;12.66;83.07
68609;SHT31;55581;46.718;7.690;2023-08-07T07:44:37;12.63;83.07
68609;SHT31;55581;46.718;7.690;2023-08-07T07:47:06;12.59;83.08
68609;SHT31;55581;46.718;7.690;2023-08-07T07:49:32;12.67;82.89
68609;SHT31;55581;46.718;7.690;2023-08-07T07:51:58;12.77;83.41
68609;SHT31;55581;46.718;7.690;2023-08-07T07:54:23;12.94;82.20
68609;SHT31;55581;46.718;7.690;2023-08-07T07:56:49;13.08;81.33
68609;SHT31;55581;46.718;7.690;2023-08-07T07:59:17;13.22;80.67
68609;SHT31;55581;46.718;7.690;2023-08-07T08:01:42;13.34;78.15
68609;SHT31;55581;46.718;7.690;2023-08-07T08:04:07;13.42;77.79
68609;SHT31;55581;46.718;7.690;2023-08-07T08:06:35;13.58;78.98
68609;SHT31;55581;46.718;7.690;2023-08-07T08:09:01;13.81;77.90
68609;SHT31;55581;46.718;7.690;2023-08-07T08:11:29;14.10;74.55
68609;SHT31;55581;46.718;7.690;2023-08-07T08:13:55;14.14;74.85
68609;SHT31;55581;46.718;7.690;2023-08-07T08:16:20;14.21;73.47
68609;SHT31;55581;46.718;7.690;2023-08-07T08:18:46;14.13;73.60
68609;SHT31;55581;46.718;7.690;2023-08-07T08:21:11;14.25;74.17
68609;SHT31;55581;46.718;7.690;2023-08-07T08:23:39;14.18;73.30
68609;SHT31;55581;46.718;7.690;2023-08-07T08:26:07;14.36;73.03
68609;SHT31;55581;46.718;7.690;2023-08-07T08:28:32;14.36;73.94
68609;SHT31;55581;46.718;7.690;2023-08-07T08:30:57;14.49;70.85
68609;SHT31;55581;46.718;7.690;2023-08-07T08:33:23;14.46;67.86
68609;SHT31;55581;46.718;7.690;2023-08-07T08:35:48;14.51;69.36
68609;SHT31;55581;46.718;7.690;2023-08-07T08:38:14;14.55;69.59
68609;SHT31;55581;46.718;7.690;2023-08-07T08:40:41;14.73;66.16
68609;SHT31;55581;46.718;7.690;2023-08-07T08:43:09;14.72;65.36
68609;SHT31;55581;46.718;7.690;2023-08-07T08:45:39;14.69;67.04
68609;SHT31;55581;46.718;7.690;2023-08-07T08:48:07;14.61;72.72
68609;SHT31;55581;46.718;7.690;2023-08-07T08:50:33;14.75;68.92
68609;SHT31;55581;46.718;7.690;2023-08-07T08:53:02;14.63;66.82
68609;SHT31;55581;46.718;7.690;2023-08-07T08:55:28;14.81;75.28
68609;SHT31;55581;46.718;7.690;2023-08-07T08:57:54;14.84;71.87
68609;SHT31;55581;46.718;7.690;2023-08-07T09:00:21;14.84;78.16
68609;SHT31;55581;46.718;7.690;2023-08-07T09:02:48;14.91;76.79
68609;SHT31;55581;46.718;7.690;2023-08-07T09:05:20;15.11;75.59
68609;SHT31;55581;46.718;7.690;2023-08-07T09:07:47;15.42;78.01
68609;SHT31;55581;46.718;7.690;2023-08-07T09:10:13;15.58;75.38
68609;SHT31;55581;46.718;7.690;2023-08-07T09:12:53;15.87;61.62
68609;SHT31;55581;46.718;7.690;2023-08-07T09:15:19;16.00;64.66
68609;SHT31;55581;46.718;7.690;2023-08-07T09:17:45;16.24;65.15
68609;SHT31;55581;46.718;7.690;2023-08-07T09:20:11;16.58;63.97
68609;SHT31;55581;46.718;7.690;2023-08-07T09:22:43;16.65;60.49
68609;SHT31;55581;46.718;7.690;2023-08-07T09:25:09;16.76;60.55
68609;SHT31;55581;46.718;7.690;2023-08-07T09:27:36;16.89;64.07
68609;SHT31;55581;46.718;7.690;2023-08-07T09:30:04;17.03;55.54
68609;SHT31;55581;46.718;7.690;2023-08-07T09:32:30;16.80;58.84
68609;SHT31;55581;46.718;7.690;2023-08-07T09:34:55;16.84;62.12
68609;SHT31;55581;46.718;7.690;2023-08-07T09:37:21;17.27;62.60
68609;SHT31;55581;46.718;7.690;2023-08-07T09:39:48;17.58;61.50
68609;SHT31;55581;46.718;7.690;2023-08-07T09:42:16;17.85;62.65
68609;SHT31;55581;46.718;7.690;2023-08-07T09:44:42;17.82;58.72
68609;SHT31;55581;46.718;7.690;2023-08-07T09:47:16;17.74;58.19
68609;SHT31;55581;46.718;7.690;2023-08-07T09:49:43;17.93;56.91
68609;SHT31;55581;46.718;7.690;2023-08-07T09:52:09;17.59;57.09
68609;SHT31;55581;46.718;7.690;2023-08-07T09:54:36;17.81;59.32
68609;SHT31;55581;46.718;7.690;2023-08-07T09:57:05;17.78;57.46
68609;SHT31;55581;46.718;7.690;2023-08-07T09:59:34;17.82;58.59
68609;SHT31;55581;46.718;7.690;2023-08-07T10:02:01;17.75;57.06
68609;SHT31;55581;46.718;7.690;2023-08-07T10:04:30;17.74;58.60
68609;SHT31;55581;46.718;7.690;2023-08-07T10:06:56;17.79;58.42
68609;SHT31;55581;46.718;7.690;2023-08-07T10:09:24;17.96;56.67
68609;SHT31;55581;46.718;7.690;2023-08-07T10:11:54;17.81;57.74
68609;SHT31;55581;46.718;7.690;2023-08-07T10:14:21;17.81;55.13
68609;SHT31;55581;46.718;7.690;2023-08-07T10:16:47;17.76;56.08
68609;SHT31;55581;46.718;7.690;2023-08-07T10:19:16;17.89;55.69
68609;SHT31;55581;46.718;7.690;2023-08-07T10:21:42;17.99;57.52
68609;SHT31;55581;46.718;7.690;2023-08-07T10:24:13;18.13;55.95
68609;SHT31;55581;46.718;7.690;2023-08-07T10:26:44;18.14;57.04
68609;SHT31;55581;46.718;7.690;2023-08-07T10:29:14;18.14;60.13
68609;SHT31;55581;46.718;7.690;2023-08-07T10:31:42;18.20;55.96
68609;SHT31;55581;46.718;7.690;2023-08-07T10:34:12;18.59;58.64
68609;SHT31;55581;46.718;7.690;2023-08-07T10:36:39;18.64;57.07
68609;SHT31;55581;46.718;7.690;2023-08-07T10:39:10;18.86;56.61
68609;SHT31;55581;46.718;7.690;2023-08-07T10:41:41;19.35;56.30
68609;SHT31;55581;46.718;7.690;2023-08-07T10:46:49;19.47;52.25
68609;SHT31;55581;46.718;7.690;2023-08-07T10:49:38;19.51;53.81
68609;SHT31;55581;46.718;7.690;2023-08-07T10:52:14;19.75;55.15
68609;SHT31;55581;46.718;7.690;2023-08-07T10:54:48;19.41;53.00
68609;SHT31;55581;46.718;7.690;2023-08-07T10:57:15;19.54;51.11
68609;SHT31;55581;46.718;7.690;2023-08-07T11:00:05;19.68;56.55
68609;SHT31;55581;46.718;7.690;2023-08-07T11:02:37;19.60;52.14
68609;SHT31;55581;46.718;7.690;2023-08-07T11:05:05;19.43;52.64
68609;SHT31;55581;46.718;7.690;2023-08-07T11:07:30;19.37;50.81
68609;SHT31;55581;46.718;7.690;2023-08-07T11:09:57;19.02;51.90
68609;SHT31;55581;46.718;7.690;2023-08-07T11:12:27;18.58;54.48
68609;SHT31;55581;46.718;7.690;2023-08-07T11:14:53;18.69;54.95
68609;SHT31;55581;46.718;7.690;2023-08-07T11:17:24;18.91;54.75
68609;SHT31;55581;46.718;7.690;2023-08-07T11:19:53;19.14;54.32
68609;SHT31;55581;46.718;7.690;2023-08-07T11:22:19;19.27;54.77
68609;SHT31;55581;46.718;7.690;2023-08-07T11:24:45;19.51;54.30
68609;SHT31;55581;46.718;7.690;2023-08-07T11:27:11;19.93;52.98
68609;SHT31;55581;46.718;7.690;2023-08-07T11:29:39;19.81;50.41
68609;SHT31;55581;46.718;7.690;2023-08-07T11:32:05;19.67;47.15
68609;SHT31;55581;46.718;7.690;2023-08-07T11:34:31;19.77;48.92
68609;SHT31;55581;46.718;7.690;2023-08-07T11:36:56;19.79;48.64
68609;SHT31;55581;46.718;7.690;2023-08-07T11:39:23;19.77;48.73
68609;SHT31;55581;46.718;7.690;2023-08-07T11:41:50;19.92;46.80
68609;SHT31;55581;46.718;7.690;2023-08-07T11:44:22;20.12;49.65
68609;SHT31;55581;46.718;7.690;2023-08-07T11:46:48;19.97;47.71
68609;SHT31;55581;46.718;7.690;2023-08-07T11:49:15;20.04;47.42
68609;SHT31;55581;46.718;7.690;2023-08-07T11:51:40;20.60;49.29
68609;SHT31;55581;46.718;7.690;2023-08-07T11:54:13;20.74;48.60
68609;SHT31;55581;46.718;7.690;2023-08-07T11:56:41;21.12;44.20
68609;SHT31;55581;46.718;7.690;2023-08-07T11:59:08;20.81;46.85
68609;SHT31;55581;46.718;7.690;2023-08-07T12:01:38;21.09;45.42
68609;SHT31;55581;46.718;7.690;2023-08-07T12:06:33;21.19;44.63
68609;SHT31;55581;46.718;7.690;2023-08-07T12:09:01;20.92;43.65
68609;SHT31;55581;46.718;7.690;2023-08-07T12:11:29;20.50;45.89
68609;SHT31;55581;46.718;7.690;2023-08-07T12:13:59;20.23;43.01
68609;SHT31;55581;46.718;7.690;2023-08-07T12:16:32;20.08;42.93
68609;SHT31;55581;46.718;7.690;2023-08-07T12:18:58;20.23;44.67
68609;SHT31;55581;46.718;7.690;2023-08-07T12:21:24;20.71;47.53
68609;SHT31;55581;46.718;7.690;2023-08-07T12:23:50;21.15;43.54
68609;SHT31;55581;46.718;7.690;2023-08-07T12:26:16;20.94;40.90
68609;SHT31;55581;46.718;7.690;2023-08-07T12:28:42;21.02;40.23
68609;SHT31;55581;46.718;7.690;2023-08-07T12:31:08;21.20;41.95
68609;SHT31;55581;46.718;7.690;2023-08-07T12:33:35;21.12;43.63
68609;SHT31;55581;46.718;7.690;2023-08-07T12:36:01;21.00;43.22
68609;SHT31;55581;46.718;7.690;2023-08-07T12:38:27;20.61;41.92
68609;SHT31;55581;46.718;7.690;2023-08-07T12:40:55;20.58;42.87
68609;SHT31;55581;46.718;7.690;2023-08-07T12:43:23;20.15;44.72
68609;SHT31;55581;46.718;7.690;2023-08-07T12:45:49;20.29;44.04
68609;SHT31;55581;46.718;7.690;2023-08-07T12:48:14;19.95;44.53
68609;SHT31;55581;46.718;7.690;2023-08-07T12:50:42;19.93;45.59
68609;SHT31;55581;46.718;7.690;2023-08-07T12:53:08;19.89;45.51
68609;SHT31;55581;46.718;7.690;2023-08-07T12:55:33;19.67;47.98
68609;SHT31;55581;46.718;7.690;2023-08-07T12:57:59;20.02;47.52
68609;SHT31;55581;46.718;7.690;2023-08-07T13:00:24;20.24;45.62
68609;SHT31;55581;46.718;7.690;2023-08-07T13:02:51;20.17;45.84
68609;SHT31;55581;46.718;7.690;2023-08-07T13:05:21;20.00;48.36
68609;SHT31;55581;46.718;7.690;2023-08-07T13:07:49;19.92;48.52
68609;SHT31;55581;46.718;7.690;2023-08-07T13:10:18;19.85;48.61
68609;SHT31;55581;46.718;7.690;2023-08-07T13:12:44;20.04;49.02
68609;SHT31;55581;46.718;7.690;2023-08-07T13:15:13;20.17;47.45
68609;SHT31;55581;46.718;7.690;2023-08-07T13:17:39;20.58;47.71
68609;SHT31;55581;46.718;7.690;2023-08-07T13:20:05;21.10;46.95
68609;SHT31;55581;46.718;7.690;2023-08-07T13:22:43;21.42;45.74
68609;SHT31;55581;46.718;7.690;2023-08-07T13:25:10;21.58;44.94
68609;SHT31;55581;46.718;7.690;2023-08-07T13:27:36;21.46;44.12
68609;SHT31;55581;46.718;7.690;2023-08-07T13:30:03;21.25;45.17
68609;SHT31;55581;46.718;7.690;2023-08-07T13:32:29;20.79;45.31
68609;SHT31;55581;46.718;7.690;2023-08-07T13:34:54;20.58;47.93
68609;SHT31;55581;46.718;7.690;2023-08-07T13:37:20;20.51;47.96
68609;SHT31;55581;46.718;7.690;2023-08-07T13:39:46;20.58;48.98
68609;SHT31;55581;46.718;7.690;2023-08-07T13:42:16;20.78;48.43
68609;SHT31;55581;46.718;7.690;2023-08-07T13:44:41;20.70;45.95
68609;SHT31;55581;46.718;7.690;2023-08-07T13:47:06;20.70;45.90
68609;SHT31;55581;46.718;7.690;2023-08-07T13:49:37;20.96;45.87
68609;SHT31;55581;46.718;7.690;2023-08-07T13:52:03;21.43;44.72
68609;SHT31;55581;46.718;7.690;2023-08-07T13:54:30;22.01;44.54
68609;SHT31;55581;46.718;7.690;2023-08-07T13:56:58;22.36;45.17
68609;SHT31;55581;46.718;7.690;2023-08-07T13:59:24;22.09;43.00
68609;SHT31;55581;46.718;7.690;2023-08-07T14:01:49;22.39;45.88
68609;SHT31;55581;46.718;7.690;2023-08-07T14:04:15;21.88;43.63
68609;SHT31;55581;46.718;7.690;2023-08-07T14:06:41;21.54;44.32
68609;SHT31;55581;46.718;7.690;2023-08-07T14:09:10;21.22;46.65
68609;SHT31;55581;46.718;7.690;2023-08-07T14:11:37;20.82;45.29
68609;SHT31;55581;46.718;7.690;2023-08-07T14:14:05;20.75;46.80
68609;SHT31;55581;46.718;7.690;2023-08-07T14:16:30;20.72;47.03
68609;SHT31;55581;46.718;7.690;2023-08-07T14:18:56;20.72;47.59
68609;SHT31;55581;46.718;7.690;2023-08-07T14:21:22;20.89;45.13
68609;SHT31;55581;46.718;7.690;2023-08-07T14:23:48;21.29;48.31
68609;SHT31;55581;46.718;7.690;2023-08-07T14:26:15;21.40;45.66
68609;SHT31;55581;46.718;7.690;2023-08-07T14:28:41;21.85;46.85
68609;SHT31;55581;46.718;7.690;2023-08-07T14:31:08;21.92;44.52
68609;SHT31;55581;46.718;7.690;2023-08-07T14:33:34;21.73;43.89
68609;SHT31;55581;46.718;7.690;2023-08-07T14:36:00;22.04;43.49
68609;SHT31;55581;46.718;7.690;2023-08-07T14:38:26;22.42;43.88
68609;SHT31;55581;46.718;7.690;2023-08-07T14:40:54;22.61;45.83
68609;SHT31;55581;46.718;7.690;2023-08-07T14:43:19;22.52;43.57
68609;SHT31;55581;46.718;7.690;2023-08-07T14:45:45;22.33;43.52
68609;SHT31;55581;46.718;7.690;2023-08-07T14:48:10;22.20;44.68
68609;SHT31;55581;46.718;7.690;2023-08-07T14:50:36;22.25;44.89
68609;SHT31;55581;46.718;7.690;2023-08-07T14:53:04;22.33;45.69
68609;SHT31;55581;46.718;7.690;2023-08-07T14:55:30;22.42;44.75
68609;SHT31;55581;46.718;7.690;2023-08-07T14:57:55;22.73;45.14
68609;SHT31;55581;46.718;7.690;2023-08-07T15:00:23;22.80;44.20
68609;SHT31;55581;46.718;7.690;2023-08-07T15:02:48;22.49;43.09
68609;SHT31;55581;46.718;7.690;2023-08-07T15:05:14;21.99;40.45
68609;SHT31;55581;46.718;7.690;2023-08-07T15:07:40;21.95;42.41
68609;SHT31;55581;46.718;7.690;2023-08-07T15:10:08;21.57;45.49
68609;SHT31;55581;46.718;7.690;2023-08-07T15:12:33;21.16;45.89
68609;SHT31;55581;46.718;7.690;2023-08-07T15:14:58;20.67;46.71
68609;SHT31;55581;46.718;7.690;2023-08-07T15:17:25;20.48;48.36
68609;SHT31;55581;46.718;7.690;2023-08-07T15:19:50;20.33;46.53
68609;SHT31;55581;46.718;7.690;2023-08-07T15:22:16;20.43;49.17
68609;SHT31;55581;46.718;7.690;2023-08-07T15:24:44;20.40;46.92
68609;SHT31;55581;46.718;7.690;2023-08-07T15:27:09;20.36;46.95
68609;SHT31;55581;46.718;7.690;2023-08-07T15:29:35;20.05;46.71
68609;SHT31;55581;46.718;7.690;2023-08-07T15:32:02;20.17;48.25
68609;SHT31;55581;46.718;7.690;2023-08-07T15:34:28;20.33;47.72
68609;SHT31;55581;46.718;7.690;2023-08-07T15:36:53;20.34;47.58